sensor_id;sensor_type;location;lat;lon;timestamp;P1;durP1;ratioP1;P2;durP2;ratioP2
11761;SDS011;5938;47.098;15.474;2022-07-03T00:02:20;3.37;;;3.17;;
11761;SDS011;5938;47.098;15.474;2022-07-03T00:06:24;2.70;;;2.13;;
11761;SDS011;5938;47.098;15.474;2022-07-03T00:10:28;2.53;;;2.33;;
11761;SDS011;5938;47.098;15.474;2022-07-03T00:14:32;2.60;;;2.40;;
11761;SDS011;5938;47.098;15.474;2022-07-03T00:18:37;3.43;;;2.90;;
11761;SDS011;5938;47.098;15.474;2022-07-03T00:22:41;2.90;;;2.60;;
11761;SDS011;5938;47.098;15.474;2022-07-03T00:26:47;2.80;;;2.60;;
11761;SDS011;5938;47.098;15.474;2022-07-03T00:30:53;3.27;;;2.70;;
11761;SDS011;5938;47.098;15.474;2022-07-03T00:35:01;2.60;;;2.40;;
11761;SDS011;5938;47.098;15.474;2022-07-03T00:39:04;2.60;;;2.40;;
11761;SDS011;5938;47.098;15.474;2022-07-03T00:43:08;3.10;;;2.90;;
11761;SDS011;5938;47.098;15.474;2022-07-03T00:47:12;2.83;;;2.57;;
11761;SDS011;5938;47.098;15.474;2022-07-03T00:51:18;3.53;;;3.23;;
11761;SDS011;5938;47.098;15.474;2022-07-03T00:55:24;3.37;;;2.60;;
11761;SDS011;5938;47.098;15.474;2022-07-03T00:59:29;4.87;;;3.03;;
11761;SDS011;5938;47.098;15.474;2022-07-03T01:03:33;3.13;;;2.83;;
11761;SDS011;5938;47.098;15.474;2022-07-03T01:07:47;3.33;;;3.03;;
11761;SDS011;5938;47.098;15.474;2022-07-03T01:12:07;3.20;;;2.90;;
11761;SDS011;5938;47.098;15.474;2022-07-03T01:16:23;4.40;;;2.97;;
11761;SDS011;5938;47.098;15.474;2022-07-03T01:20:29;5.07;;;2.80;;
11761;SDS011;5938;47.098;15.474;2022-07-03T01:24:42;2.50;;;2.30;;
11761;SDS011;5938;47.098;15.474;2022-07-03T01:28:52;4.40;;;2.90;;
11761;SDS011;5938;47.098;15.474;2022-07-03T01:32:59;3.17;;;2.70;;
11761;SDS011;5938;47.098;15.474;2022-07-03T01:37:08;3.50;;;2.93;;
11761;SDS011;5938;47.098;15.474;2022-07-03T01:41:16;3.83;;;2.73;;
11761;SDS011;5938;47.098;15.474;2022-07-03T01:45:21;3.03;;;2.83;;
11761;SDS011;5938;47.098;15.474;2022-07-03T01:49:29;4.40;;;2.73;;
11761;SDS011;5938;47.098;15.474;2022-07-03T01:53:35;2.70;;;2.50;;
11761;SDS011;5938;47.098;15.474;2022-07-03T01:57:42;3.70;;;3.20;;
11761;SDS011;5938;47.098;15.474;2022-07-03T02:01:50;3.10;;;2.80;;
11761;SDS011;5938;47.098;15.474;2022-07-03T02:06:04;2.60;;;2.40;;
11761;SDS011;5938;47.098;15.474;2022-07-03T02:10:10;3.20;;;2.90;;
11761;SDS011;5938;47.098;15.474;2022-07-03T02:14:22;3.00;;;2.80;;
11761;SDS011;5938;47.098;15.474;2022-07-03T02:18:29;5.70;;;2.90;;
11761;SDS011;5938;47.098;15.474;2022-07-03T02:22:36;3.23;;;2.80;;
11761;SDS011;5938;47.098;15.474;2022-07-03T02:26:42;4.13;;;2.70;;
11761;SDS011;5938;47.098;15.474;2022-07-03T02:30:56;3.80;;;3.50;;
11761;SDS011;5938;47.098;15.474;2022-07-03T02:35:04;4.03;;;3.07;;
11761;SDS011;5938;47.098;15.474;2022-07-03T02:39:10;3.23;;;2.90;;
11761;SDS011;5938;47.098;15.474;2022-07-03T02:43:23;3.10;;;2.80;;
11761;SDS011;5938;47.098;15.474;2022-07-03T02:47:43;2.80;;;2.60;;
11761;SDS011;5938;47.098;15.474;2022-07-03T02:51:54;2.87;;;2.67;;
11761;SDS011;5938;47.098;15.474;2022-07-03T02:56:06;2.90;;;2.70;;
11761;SDS011;5938;47.098;15.474;2022-07-03T03:00:17;3.50;;;3.20;;
11761;SDS011;5938;47.098;15.474;2022-07-03T03:04:21;3.40;;;3.10;;
11761;SDS011;5938;47.098;15.474;2022-07-03T03:08:35;2.77;;;2.57;;
11761;SDS011;5938;47.098;15.474;2022-07-03T03:12:43;6.00;;;3.30;;
11761;SDS011;5938;47.098;15.474;2022-07-03T03:16:51;3.40;;;3.10;;
11761;SDS011;5938;47.098;15.474;2022-07-03T03:20:55;9.50;;;3.07;;
11761;SDS011;5938;47.098;15.474;2022-07-03T03:25:04;4.97;;;3.40;;
11761;SDS011;5938;47.098;15.474;2022-07-03T03:29:09;3.33;;;3.03;;
11761;SDS011;5938;47.098;15.474;2022-07-03T03:33:13;3.00;;;2.80;;
11761;SDS011;5938;47.098;15.474;2022-07-03T03:37:16;3.87;;;2.90;;
11761;SDS011;5938;47.098;15.474;2022-07-03T03:41:21;3.50;;;3.30;;
11761;SDS011;5938;47.098;15.474;2022-07-03T03:45:25;4.03;;;3.73;;
11761;SDS011;5938;47.098;15.474;2022-07-03T03:49:28;4.13;;;3.13;;
11761;SDS011;5938;47.098;15.474;2022-07-03T03:53:32;3.00;;;2.80;;
11761;SDS011;5938;47.098;15.474;2022-07-03T03:57:37;3.20;;;2.90;;
11761;SDS011;5938;47.098;15.474;2022-07-03T04:01:40;5.10;;;3.00;;
11761;SDS011;5938;47.098;15.474;2022-07-03T04:05:44;5.80;;;2.70;;
11761;SDS011;5938;47.098;15.474;2022-07-03T04:09:47;3.80;;;3.50;;
11761;SDS011;5938;47.098;15.474;2022-07-03T04:13:52;3.17;;;2.97;;
11761;SDS011;5938;47.098;15.474;2022-07-03T04:17:55;3.57;;;3.27;;
11761;SDS011;5938;47.098;15.474;2022-07-03T04:21:58;3.73;;;3.43;;
11761;SDS011;5938;47.098;15.474;2022-07-03T04:26:02;3.13;;;2.83;;
11761;SDS011;5938;47.098;15.474;2022-07-03T04:30:08;2.93;;;2.73;;
11761;SDS011;5938;47.098;15.474;2022-07-03T04:34:12;3.73;;;3.43;;
11761;SDS011;5938;47.098;15.474;2022-07-03T04:38:15;4.30;;;3.90;;
11761;SDS011;5938;47.098;15.474;2022-07-03T04:42:19;3.13;;;2.83;;
11761;SDS011;5938;47.098;15.474;2022-07-03T04:46:23;3.50;;;3.20;;
11761;SDS011;5938;47.098;15.474;2022-07-03T04:50:27;4.33;;;4.03;;
11761;SDS011;5938;47.098;15.474;2022-07-03T04:54:30;3.67;;;3.37;;
11761;SDS011;5938;47.098;15.474;2022-07-03T04:58:34;3.57;;;3.27;;
11761;SDS011;5938;47.098;15.474;2022-07-03T05:02:38;3.53;;;3.23;;
11761;SDS011;5938;47.098;15.474;2022-07-03T05:06:43;2.97;;;2.77;;
11761;SDS011;5938;47.098;15.474;2022-07-03T05:10:46;2.63;;;2.43;;
11761;SDS011;5938;47.098;15.474;2022-07-03T05:14:50;3.10;;;2.80;;
11761;SDS011;5938;47.098;15.474;2022-07-03T05:18:54;3.30;;;3.10;;
11761;SDS011;5938;47.098;15.474;2022-07-03T05:22:58;3.13;;;2.90;;
11761;SDS011;5938;47.098;15.474;2022-07-03T05:27:03;2.43;;;2.33;;
11761;SDS011;5938;47.098;15.474;2022-07-03T05:31:09;3.20;;;3.00;;
11761;SDS011;5938;47.098;15.474;2022-07-03T05:35:14;3.67;;;3.37;;
11761;SDS011;5938;47.098;15.474;2022-07-03T05:39:18;3.37;;;3.07;;
11761;SDS011;5938;47.098;15.474;2022-07-03T05:43:39;3.13;;;2.93;;
11761;SDS011;5938;47.098;15.474;2022-07-03T05:47:43;2.60;;;2.40;;
11761;SDS011;5938;47.098;15.474;2022-07-03T05:51:47;4.97;;;3.77;;
11761;SDS011;5938;47.098;15.474;2022-07-03T05:55:51;2.73;;;2.60;;
11761;SDS011;5938;47.098;15.474;2022-07-03T05:59:54;3.00;;;2.80;;
11761;SDS011;5938;47.098;15.474;2022-07-03T06:03:58;3.30;;;2.97;;
11761;SDS011;5938;47.098;15.474;2022-07-03T06:08:03;3.53;;;3.17;;
11761;SDS011;5938;47.098;15.474;2022-07-03T06:12:07;3.20;;;2.90;;
11761;SDS011;5938;47.098;15.474;2022-07-03T06:16:11;3.20;;;2.80;;
11761;SDS011;5938;47.098;15.474;2022-07-03T06:20:14;3.13;;;2.93;;
11761;SDS011;5938;47.098;15.474;2022-07-03T06:24:19;2.70;;;2.50;;
11761;SDS011;5938;47.098;15.474;2022-07-03T06:28:23;2.50;;;2.40;;
11761;SDS011;5938;47.098;15.474;2022-07-03T06:32:26;5.43;;;2.70;;
11761;SDS011;5938;47.098;15.474;2022-07-03T06:36:30;3.27;;;2.67;;
11761;SDS011;5938;47.098;15.474;2022-07-03T06:40:34;3.03;;;2.60;;
11761;SDS011;5938;47.098;15.474;2022-07-03T06:44:38;3.20;;;2.90;;
11761;SDS011;5938;47.098;15.474;2022-07-03T06:48:42;2.70;;;2.50;;
11761;SDS011;5938;47.098;15.474;2022-07-03T06:52:45;4.73;;;2.60;;
11761;SDS011;5938;47.098;15.474;2022-07-03T06:56:50;3.60;;;2.83;;
11761;SDS011;5938;47.098;15.474;2022-07-03T07:00:53;3.50;;;3.20;;
11761;SDS011;5938;47.098;15.474;2022-07-03T07:04:57;3.50;;;3.10;;
11761;SDS011;5938;47.098;15.474;2022-07-03T07:09:00;5.50;;;2.23;;
11761;SDS011;5938;47.098;15.474;2022-07-03T07:13:05;2.70;;;2.50;;
11761;SDS011;5938;47.098;15.474;2022-07-03T07:17:09;2.97;;;2.77;;
11761;SDS011;5938;47.098;15.474;2022-07-03T07:21:12;3.10;;;2.90;;
11761;SDS011;5938;47.098;15.474;2022-07-03T07:25:16;2.97;;;2.77;;
11761;SDS011;5938;47.098;15.474;2022-07-03T07:29:20;2.80;;;2.60;;
11761;SDS011;5938;47.098;15.474;2022-07-03T07:33:24;3.40;;;3.20;;
11761;SDS011;5938;47.098;15.474;2022-07-03T07:37:27;2.17;;;2.00;;
11761;SDS011;5938;47.098;15.474;2022-07-03T07:41:31;3.40;;;2.20;;
11761;SDS011;5938;47.098;15.474;2022-07-03T07:45:35;2.60;;;2.40;;
11761;SDS011;5938;47.098;15.474;2022-07-03T07:49:39;3.30;;;2.70;;
11761;SDS011;5938;47.098;15.474;2022-07-03T07:53:43;2.37;;;2.23;;
11761;SDS011;5938;47.098;15.474;2022-07-03T07:57:47;3.30;;;3.00;;
11761;SDS011;5938;47.098;15.474;2022-07-03T08:01:52;3.50;;;2.50;;
11761;SDS011;5938;47.098;15.474;2022-07-03T08:06:13;3.20;;;2.20;;
11761;SDS011;5938;47.098;15.474;2022-07-03T08:10:17;2.87;;;2.57;;
11761;SDS011;5938;47.098;15.474;2022-07-03T08:14:20;2.30;;;2.20;;
11761;SDS011;5938;47.098;15.474;2022-07-03T08:18:25;2.57;;;2.37;;
11761;SDS011;5938;47.098;15.474;2022-07-03T08:22:29;2.83;;;2.63;;
11761;SDS011;5938;47.098;15.474;2022-07-03T08:26:32;3.83;;;2.87;;
11761;SDS011;5938;47.098;15.474;2022-07-03T08:30:36;2.57;;;2.37;;
11761;SDS011;5938;47.098;15.474;2022-07-03T08:34:41;2.67;;;2.47;;
11761;SDS011;5938;47.098;15.474;2022-07-03T08:38:45;3.27;;;2.97;;
11761;SDS011;5938;47.098;15.474;2022-07-03T08:42:48;3.50;;;2.80;;
11761;SDS011;5938;47.098;15.474;2022-07-03T08:46:54;2.77;;;2.40;;
11761;SDS011;5938;47.098;15.474;2022-07-03T08:51:00;3.03;;;2.50;;
11761;SDS011;5938;47.098;15.474;2022-07-03T08:55:07;2.50;;;2.37;;
11761;SDS011;5938;47.098;15.474;2022-07-03T08:59:12;2.87;;;2.50;;
11761;SDS011;5938;47.098;15.474;2022-07-03T09:03:16;2.80;;;2.60;;
11761;SDS011;5938;47.098;15.474;2022-07-03T09:07:22;2.33;;;2.20;;
11761;SDS011;5938;47.098;15.474;2022-07-03T09:11:28;2.23;;;2.13;;
11761;SDS011;5938;47.098;15.474;2022-07-03T09:15:32;2.33;;;2.00;;
11761;SDS011;5938;47.098;15.474;2022-07-03T09:19:39;2.60;;;2.40;;
11761;SDS011;5938;47.098;15.474;2022-07-03T09:23:45;1.93;;;1.83;;
11761;SDS011;5938;47.098;15.474;2022-07-03T09:27:49;2.57;;;2.37;;
11761;SDS011;5938;47.098;15.474;2022-07-03T09:31:55;2.57;;;2.37;;
11761;SDS011;5938;47.098;15.474;2022-07-03T09:35:58;2.53;;;2.33;;
11761;SDS011;5938;47.098;15.474;2022-07-03T09:40:04;2.40;;;2.20;;
11761;SDS011;5938;47.098;15.474;2022-07-03T09:44:08;2.90;;;2.70;;
11761;SDS011;5938;47.098;15.474;2022-07-03T09:48:31;4.00;;;3.03;;
11761;SDS011;5938;47.098;15.474;2022-07-03T09:52:39;3.23;;;2.60;;
11761;SDS011;5938;47.098;15.474;2022-07-03T09:56:45;4.07;;;2.40;;
11761;SDS011;5938;47.098;15.474;2022-07-03T10:00:48;3.13;;;2.60;;
11761;SDS011;5938;47.098;15.474;2022-07-03T10:04:54;2.50;;;2.23;;
11761;SDS011;5938;47.098;15.474;2022-07-03T10:09:14;3.00;;;2.67;;
11761;SDS011;5938;47.098;15.474;2022-07-03T10:13:23;2.53;;;2.33;;
11761;SDS011;5938;47.098;15.474;2022-07-03T10:17:27;3.53;;;2.27;;
11761;SDS011;5938;47.098;15.474;2022-07-03T10:21:31;3.70;;;2.40;;
11761;SDS011;5938;47.098;15.474;2022-07-03T10:25:35;2.40;;;2.20;;
11761;SDS011;5938;47.098;15.474;2022-07-03T10:29:44;2.77;;;2.57;;
11761;SDS011;5938;47.098;15.474;2022-07-03T10:33:50;3.63;;;2.77;;
11761;SDS011;5938;47.098;15.474;2022-07-03T10:37:58;2.33;;;2.23;;
11761;SDS011;5938;47.098;15.474;2022-07-03T10:42:19;2.13;;;2.03;;
11761;SDS011;5938;47.098;15.474;2022-07-03T10:46:52;3.00;;;2.80;;
11761;SDS011;5938;47.098;15.474;2022-07-03T10:51:10;2.77;;;2.47;;
11761;SDS011;5938;47.098;15.474;2022-07-03T10:55:15;2.87;;;2.63;;
11761;SDS011;5938;47.098;15.474;2022-07-03T10:59:20;3.40;;;2.50;;
11761;SDS011;5938;47.098;15.474;2022-07-03T11:08:07;2.30;;;2.10;;
11761;SDS011;5938;47.098;15.474;2022-07-03T11:12:11;2.90;;;2.70;;
11761;SDS011;5938;47.098;15.474;2022-07-03T11:16:21;2.60;;;2.40;;
11761;SDS011;5938;47.098;15.474;2022-07-03T11:20:32;2.77;;;2.57;;
11761;SDS011;5938;47.098;15.474;2022-07-03T11:24:38;2.70;;;2.50;;
11761;SDS011;5938;47.098;15.474;2022-07-03T11:28:50;2.73;;;2.37;;
11761;SDS011;5938;47.098;15.474;2022-07-03T11:32:54;2.00;;;1.90;;
11761;SDS011;5938;47.098;15.474;2022-07-03T11:37:02;2.90;;;2.70;;
11761;SDS011;5938;47.098;15.474;2022-07-03T11:41:06;2.73;;;2.40;;
11761;SDS011;5938;47.098;15.474;2022-07-03T11:45:12;2.20;;;2.10;;
11761;SDS011;5938;47.098;15.474;2022-07-03T11:49:16;2.77;;;2.57;;
11761;SDS011;5938;47.098;15.474;2022-07-03T11:53:23;2.70;;;2.10;;
11761;SDS011;5938;47.098;15.474;2022-07-03T11:57:27;2.43;;;2.33;;
11761;SDS011;5938;47.098;15.474;2022-07-03T12:01:32;2.60;;;2.43;;
11761;SDS011;5938;47.098;15.474;2022-07-03T12:05:48;2.00;;;1.90;;
11761;SDS011;5938;47.098;15.474;2022-07-03T12:09:54;4.10;;;2.30;;
11761;SDS011;5938;47.098;15.474;2022-07-03T12:14:01;2.23;;;2.13;;
11761;SDS011;5938;47.098;15.474;2022-07-03T12:18:07;2.57;;;2.37;;
11761;SDS011;5938;47.098;15.474;2022-07-03T12:22:12;2.40;;;2.30;;
11761;SDS011;5938;47.098;15.474;2022-07-03T12:26:29;2.43;;;2.33;;
11761;SDS011;5938;47.098;15.474;2022-07-03T12:30:35;3.20;;;3.00;;
11761;SDS011;5938;47.098;15.474;2022-07-03T12:34:39;3.60;;;3.40;;
11761;SDS011;5938;47.098;15.474;2022-07-03T12:38:47;2.20;;;2.00;;
11761;SDS011;5938;47.098;15.474;2022-07-03T12:42:53;2.83;;;2.63;;
11761;SDS011;5938;47.098;15.474;2022-07-03T12:46:58;2.57;;;2.30;;
11761;SDS011;5938;47.098;15.474;2022-07-03T12:51:02;2.40;;;2.30;;
11761;SDS011;5938;47.098;15.474;2022-07-03T12:55:07;2.63;;;2.43;;
11761;SDS011;5938;47.098;15.474;2022-07-03T12:59:27;2.23;;;2.10;;
11761;SDS011;5938;47.098;15.474;2022-07-03T13:03:34;2.43;;;2.33;;
11761;SDS011;5938;47.098;15.474;2022-07-03T13:07:43;2.50;;;2.30;;
11761;SDS011;5938;47.098;15.474;2022-07-03T13:11:51;2.67;;;2.30;;
11761;SDS011;5938;47.098;15.474;2022-07-03T13:15:57;2.67;;;2.50;;
11761;SDS011;5938;47.098;15.474;2022-07-03T13:20:01;2.63;;;2.43;;
11761;SDS011;5938;47.098;15.474;2022-07-03T13:24:05;2.40;;;2.20;;
11761;SDS011;5938;47.098;15.474;2022-07-03T13:28:10;2.50;;;2.40;;
11761;SDS011;5938;47.098;15.474;2022-07-03T13:32:17;2.07;;;1.87;;
11761;SDS011;5938;47.098;15.474;2022-07-03T13:36:20;2.90;;;2.70;;
11761;SDS011;5938;47.098;15.474;2022-07-03T13:40:24;2.50;;;2.40;;
11761;SDS011;5938;47.098;15.474;2022-07-03T13:44:28;2.33;;;2.23;;
11761;SDS011;5938;47.098;15.474;2022-07-03T13:48:34;2.60;;;2.50;;
11761;SDS011;5938;47.098;15.474;2022-07-03T13:52:38;2.80;;;2.63;;
11761;SDS011;5938;47.098;15.474;2022-07-03T13:56:42;2.17;;;2.07;;
11761;SDS011;5938;47.098;15.474;2022-07-03T14:00:46;2.73;;;2.53;;
11761;SDS011;5938;47.098;15.474;2022-07-03T14:04:51;2.90;;;2.63;;
11761;SDS011;5938;47.098;15.474;2022-07-03T14:08:59;2.50;;;2.30;;
11761;SDS011;5938;47.098;15.474;2022-07-03T14:13:04;2.50;;;2.30;;
11761;SDS011;5938;47.098;15.474;2022-07-03T14:17:10;2.70;;;2.50;;
11761;SDS011;5938;47.098;15.474;2022-07-03T14:21:15;2.43;;;2.33;;
11761;SDS011;5938;47.098;15.474;2022-07-03T14:25:21;2.00;;;1.90;;
11761;SDS011;5938;47.098;15.474;2022-07-03T14:29:25;3.23;;;2.43;;
11761;SDS011;5938;47.098;15.474;2022-07-03T14:33:48;3.57;;;3.30;;
11761;SDS011;5938;47.098;15.474;2022-07-03T14:37:52;3.60;;;2.20;;
11761;SDS011;5938;47.098;15.474;2022-07-03T14:41:56;2.80;;;2.60;;
11761;SDS011;5938;47.098;15.474;2022-07-03T14:45:59;2.37;;;2.27;;
11761;SDS011;5938;47.098;15.474;2022-07-03T14:50:03;2.70;;;2.50;;
11761;SDS011;5938;47.098;15.474;2022-07-03T14:54:08;2.57;;;2.47;;
11761;SDS011;5938;47.098;15.474;2022-07-03T14:58:16;2.80;;;2.20;;
11761;SDS011;5938;47.098;15.474;2022-07-03T15:02:21;2.23;;;2.13;;
11761;SDS011;5938;47.098;15.474;2022-07-03T15:06:25;2.47;;;2.33;;
11761;SDS011;5938;47.098;15.474;2022-07-03T15:10:32;2.03;;;1.93;;
11761;SDS011;5938;47.098;15.474;2022-07-03T15:14:37;2.10;;;2.00;;
11761;SDS011;5938;47.098;15.474;2022-07-03T15:18:45;2.40;;;2.30;;
11761;SDS011;5938;47.098;15.474;2022-07-03T15:22:48;2.63;;;2.30;;
11761;SDS011;5938;47.098;15.474;2022-07-03T15:26:53;4.00;;;2.63;;
11761;SDS011;5938;47.098;15.474;2022-07-03T15:30:58;3.30;;;3.10;;
11761;SDS011;5938;47.098;15.474;2022-07-03T15:35:02;2.77;;;2.43;;
11761;SDS011;5938;47.098;15.474;2022-07-03T15:39:06;2.70;;;2.50;;
11761;SDS011;5938;47.098;15.474;2022-07-03T15:43:16;2.90;;;2.70;;
11761;SDS011;5938;47.098;15.474;2022-07-03T15:47:36;2.53;;;2.33;;
11761;SDS011;5938;47.098;15.474;2022-07-03T15:51:50;2.23;;;2.13;;
11761;SDS011;5938;47.098;15.474;2022-07-03T15:56:09;3.50;;;2.27;;
11761;SDS011;5938;47.098;15.474;2022-07-03T16:00:18;2.60;;;2.40;;
11761;SDS011;5938;47.098;15.474;2022-07-03T16:04:27;2.70;;;2.50;;
11761;SDS011;5938;47.098;15.474;2022-07-03T16:08:31;2.80;;;2.60;;
11761;SDS011;5938;47.098;15.474;2022-07-03T16:12:35;2.63;;;2.43;;
11761;SDS011;5938;47.098;15.474;2022-07-03T16:16:41;2.57;;;2.37;;
11761;SDS011;5938;47.098;15.474;2022-07-03T16:20:51;3.17;;;2.97;;
11761;SDS011;5938;47.098;15.474;2022-07-03T16:24:56;3.30;;;3.10;;
11761;SDS011;5938;47.098;15.474;2022-07-03T16:29:00;3.30;;;3.10;;
11761;SDS011;5938;47.098;15.474;2022-07-03T16:33:05;3.17;;;2.97;;
11761;SDS011;5938;47.098;15.474;2022-07-03T16:37:12;3.23;;;2.87;;
11761;SDS011;5938;47.098;15.474;2022-07-03T16:41:17;4.07;;;3.40;;
11761;SDS011;5938;47.098;15.474;2022-07-03T16:45:29;6.03;;;3.20;;
11761;SDS011;5938;47.098;15.474;2022-07-03T16:49:36;3.50;;;3.20;;
11761;SDS011;5938;47.098;15.474;2022-07-03T16:53:43;3.30;;;3.10;;
11761;SDS011;5938;47.098;15.474;2022-07-03T16:57:48;3.30;;;3.10;;
11761;SDS011;5938;47.098;15.474;2022-07-03T17:01:52;3.60;;;3.40;;
11761;SDS011;5938;47.098;15.474;2022-07-03T17:05:58;3.23;;;2.93;;
11761;SDS011;5938;47.098;15.474;2022-07-03T17:10:02;3.00;;;2.80;;
11761;SDS011;5938;47.098;15.474;2022-07-03T17:14:05;2.83;;;2.63;;
11761;SDS011;5938;47.098;15.474;2022-07-03T17:18:10;3.40;;;3.20;;
11761;SDS011;5938;47.098;15.474;2022-07-03T17:22:15;3.20;;;3.00;;
11761;SDS011;5938;47.098;15.474;2022-07-03T17:26:31;3.30;;;3.10;;
11761;SDS011;5938;47.098;15.474;2022-07-03T17:30:37;3.40;;;3.10;;
11761;SDS011;5938;47.098;15.474;2022-07-03T17:34:45;3.80;;;3.50;;
11761;SDS011;5938;47.098;15.474;2022-07-03T17:38:54;3.37;;;3.17;;
11761;SDS011;5938;47.098;15.474;2022-07-03T17:42:59;3.10;;;2.80;;
11761;SDS011;5938;47.098;15.474;2022-07-03T17:47:04;3.70;;;3.40;;
11761;SDS011;5938;47.098;15.474;2022-07-03T17:51:08;4.23;;;3.80;;
11761;SDS011;5938;47.098;15.474;2022-07-03T17:55:17;4.63;;;3.50;;
11761;SDS011;5938;47.098;15.474;2022-07-03T17:59:23;4.37;;;4.07;;
11761;SDS011;5938;47.098;15.474;2022-07-03T18:03:28;4.10;;;3.70;;
11761;SDS011;5938;47.098;15.474;2022-07-03T18:07:35;3.60;;;3.30;;
11761;SDS011;5938;47.098;15.474;2022-07-03T18:11:52;4.07;;;3.77;;
11761;SDS011;5938;47.098;15.474;2022-07-03T18:16:03;4.50;;;4.20;;
11761;SDS011;5938;47.098;15.474;2022-07-03T18:20:12;3.70;;;3.20;;
11761;SDS011;5938;47.098;15.474;2022-07-03T18:24:17;3.43;;;3.23;;
11761;SDS011;5938;47.098;15.474;2022-07-03T18:28:25;4.10;;;3.47;;
11761;SDS011;5938;47.098;15.474;2022-07-03T18:32:31;3.50;;;3.20;;
11761;SDS011;5938;47.098;15.474;2022-07-03T18:36:39;4.17;;;3.80;;
11761;SDS011;5938;47.098;15.474;2022-07-03T18:40:43;5.27;;;4.07;;
11761;SDS011;5938;47.098;15.474;2022-07-03T18:44:49;4.70;;;4.40;;
11761;SDS011;5938;47.098;15.474;2022-07-03T18:48:53;3.63;;;3.33;;
11761;SDS011;5938;47.098;15.474;2022-07-03T18:52:58;4.70;;;4.30;;
11761;SDS011;5938;47.098;15.474;2022-07-03T18:57:05;3.07;;;2.87;;
11761;SDS011;5938;47.098;15.474;2022-07-03T19:01:15;6.03;;;4.47;;
11761;SDS011;5938;47.098;15.474;2022-07-03T19:05:20;3.83;;;3.47;;
11761;SDS011;5938;47.098;15.474;2022-07-03T19:09:31;4.80;;;4.40;;
11761;SDS011;5938;47.098;15.474;2022-07-03T19:13:46;8.53;;;4.17;;
11761;SDS011;5938;47.098;15.474;2022-07-03T19:17:57;5.00;;;3.80;;
11761;SDS011;5938;47.098;15.474;2022-07-03T19:22:00;4.20;;;3.80;;
11761;SDS011;5938;47.098;15.474;2022-07-03T19:26:04;4.33;;;4.03;;
11761;SDS011;5938;47.098;15.474;2022-07-03T19:30:10;4.60;;;4.20;;
11761;SDS011;5938;47.098;15.474;2022-07-03T19:34:16;4.93;;;4.53;;
11761;SDS011;5938;47.098;15.474;2022-07-03T19:38:20;4.10;;;3.80;;
11761;SDS011;5938;47.098;15.474;2022-07-03T19:42:24;3.97;;;3.67;;
11761;SDS011;5938;47.098;15.474;2022-07-03T19:46:28;4.20;;;3.87;;
11761;SDS011;5938;47.098;15.474;2022-07-03T19:50:33;4.50;;;4.10;;
11761;SDS011;5938;47.098;15.474;2022-07-03T19:54:36;4.53;;;4.13;;
11761;SDS011;5938;47.098;15.474;2022-07-03T19:58:41;4.70;;;4.40;;
11761;SDS011;5938;47.098;15.474;2022-07-03T20:02:44;5.20;;;4.80;;
11761;SDS011;5938;47.098;15.474;2022-07-03T20:06:49;5.10;;;4.70;;
11761;SDS011;5938;47.098;15.474;2022-07-03T20:10:52;5.10;;;4.40;;
11761;SDS011;5938;47.098;15.474;2022-07-03T20:14:56;4.80;;;4.40;;
11761;SDS011;5938;47.098;15.474;2022-07-03T20:19:05;6.30;;;4.30;;
11761;SDS011;5938;47.098;15.474;2022-07-03T20:23:13;5.13;;;4.73;;
11761;SDS011;5938;47.098;15.474;2022-07-03T20:27:17;4.73;;;4.30;;
11761;SDS011;5938;47.098;15.474;2022-07-03T20:31:21;5.50;;;5.03;;
11761;SDS011;5938;47.098;15.474;2022-07-03T20:35:25;5.20;;;4.80;;
11761;SDS011;5938;47.098;15.474;2022-07-03T20:39:31;5.83;;;5.27;;
11761;SDS011;5938;47.098;15.474;2022-07-03T20:43:37;5.80;;;5.33;;
11761;SDS011;5938;47.098;15.474;2022-07-03T20:47:41;5.90;;;5.30;;
11761;SDS011;5938;47.098;15.474;2022-07-03T20:51:45;6.13;;;4.97;;
11761;SDS011;5938;47.098;15.474;2022-07-03T20:55:50;5.40;;;5.00;;
11761;SDS011;5938;47.098;15.474;2022-07-03T20:59:53;5.40;;;4.97;;
11761;SDS011;5938;47.098;15.474;2022-07-03T21:03:56;6.00;;;5.50;;
11761;SDS011;5938;47.098;15.474;2022-07-03T21:08:00;5.87;;;5.40;;
11761;SDS011;5938;47.098;15.474;2022-07-03T21:12:05;5.13;;;4.73;;
11761;SDS011;5938;47.098;15.474;2022-07-03T21:16:10;6.03;;;5.47;;
11761;SDS011;5938;47.098;15.474;2022-07-03T21:20:13;8.40;;;5.33;;
11761;SDS011;5938;47.098;15.474;2022-07-03T21:24:17;6.00;;;5.50;;
11761;SDS011;5938;47.098;15.474;2022-07-03T21:28:22;6.37;;;5.30;;
11761;SDS011;5938;47.098;15.474;2022-07-03T21:32:26;5.67;;;5.17;;
11761;SDS011;5938;47.098;15.474;2022-07-03T21:36:30;5.20;;;4.80;;
11761;SDS011;5938;47.098;15.474;2022-07-03T21:40:33;6.10;;;5.50;;
11761;SDS011;5938;47.098;15.474;2022-07-03T21:44:38;5.50;;;5.10;;
11761;SDS011;5938;47.098;15.474;2022-07-03T21:48:41;5.93;;;5.43;;
11761;SDS011;5938;47.098;15.474;2022-07-03T21:52:45;5.87;;;5.33;;
11761;SDS011;5938;47.098;15.474;2022-07-03T21:56:51;5.17;;;4.77;;
11761;SDS011;5938;47.098;15.474;2022-07-03T22:00:55;6.03;;;5.53;;
11761;SDS011;5938;47.098;15.474;2022-07-03T22:04:59;5.10;;;4.70;;
11761;SDS011;5938;47.098;15.474;2022-07-03T22:09:03;6.40;;;5.90;;
11761;SDS011;5938;47.098;15.474;2022-07-03T22:13:06;5.03;;;4.40;;
11761;SDS011;5938;47.098;15.474;2022-07-03T22:17:11;5.83;;;5.33;;
11761;SDS011;5938;47.098;15.474;2022-07-03T22:21:14;5.73;;;5.33;;
11761;SDS011;5938;47.098;15.474;2022-07-03T22:25:18;6.43;;;5.97;;
11761;SDS011;5938;47.098;15.474;2022-07-03T22:29:22;7.27;;;5.67;;
11761;SDS011;5938;47.098;15.474;2022-07-03T22:33:26;6.83;;;6.10;;
11761;SDS011;5938;47.098;15.474;2022-07-03T22:37:30;6.37;;;5.77;;
11761;SDS011;5938;47.098;15.474;2022-07-03T22:41:33;7.27;;;6.60;;
11761;SDS011;5938;47.098;15.474;2022-07-03T22:45:37;6.67;;;6.07;;
11761;SDS011;5938;47.098;15.474;2022-07-03T22:49:41;6.00;;;5.50;;
11761;SDS011;5938;47.098;15.474;2022-07-03T22:53:45;7.37;;;6.77;;
11761;SDS011;5938;47.098;15.474;2022-07-03T22:57:48;5.73;;;5.23;;
11761;SDS011;5938;47.098;15.474;2022-07-03T23:01:52;6.83;;;5.87;;
11761;SDS011;5938;47.098;15.474;2022-07-03T23:05:57;6.47;;;5.87;;
11761;SDS011;5938;47.098;15.474;2022-07-03T23:10:00;6.17;;;5.57;;
11761;SDS011;5938;47.098;15.474;2022-07-03T23:14:04;6.13;;;5.70;;
11761;SDS011;5938;47.098;15.474;2022-07-03T23:18:08;4.93;;;4.53;;
11761;SDS011;5938;47.098;15.474;2022-07-03T23:22:12;6.47;;;5.93;;
11761;SDS011;5938;47.098;15.474;2022-07-03T23:26:16;7.07;;;6.37;;
11761;SDS011;5938;47.098;15.474;2022-07-03T23:30:19;5.70;;;5.20;;
11761;SDS011;5938;47.098;15.474;2022-07-03T23:34:22;5.93;;;5.40;;
11761;SDS011;5938;47.098;15.474;2022-07-03T23:38:27;6.13;;;5.63;;
11761;SDS011;5938;47.098;15.474;2022-07-03T23:42:30;6.10;;;5.50;;
11761;SDS011;5938;47.098;15.474;2022-07-03T23:46:34;6.33;;;5.83;;
11761;SDS011;5938;47.098;15.474;2022-07-03T23:50:37;6.30;;;5.80;;
11761;SDS011;5938;47.098;15.474;2022-07-03T23:54:42;6.50;;;5.90;;
11761;SDS011;5938;47.098;15.474;2022-07-03T23:58:46;6.63;;;6.03;;
